Time;durP1;ratioP1;P1;durP2;ratioP2;P2;SDS_P1;SDS_P2;PMS_P1;PMS_P2;Temp;Humidity;BMP_temperature;BMP_pressure;BME280_temperature;BME280_humidity;BME280_pressure;Samples;Min_cycle;Max_cycle;Signal;HPM_P1;HPM_P2
2022/10/19 00:01:01;;;;;;;5.80;5.30;;;;;;;16.12;100.00;97258.28;5030721;28;102873;-64
2022/10/19 00:03:28;;;;;;;7.33;4.70;;;;;;;16.11;100.00;97261.22;5030088;28;102809;-64
2022/10/19 00:05:55;;;;;;;5.53;4.70;;;;;;;16.14;100.00;97260.69;5029158;28;102016;-64
2022/10/19 00:08:22;;;;;;;5.87;4.70;;;;;;;16.13;100.00;97256.41;5029190;28;105313;-64
2022/10/19 00:10:49;;;;;;;10.57;4.83;;;;;;;16.11;100.00;97258.53;5028505;28;105533;-64
2022/10/19 00:13:17;;;;;;;5.20;4.70;;;;;;;16.10;100.00;97257.75;5028942;28;102090;-64
2022/10/19 00:15:45;;;;;;;5.23;4.73;;;;;;;16.11;100.00;97263.91;5031885;28;105168;-64
2022/10/19 00:18:12;;;;;;;5.90;4.87;;;;;;;16.12;100.00;97262.81;5029109;28;101953;-64
2022/10/19 00:20:39;;;;;;;6.37;5.17;;;;;;;16.15;100.00;97256.94;5028892;28;105030;-64
2022/10/19 00:23:06;;;;;;;9.63;5.80;;;;;;;16.15;100.00;97262.31;5028430;28;105620;-64
2022/10/19 00:25:33;;;;;;;9.07;5.17;;;;;;;16.13;100.00;97262.56;5028761;28;101983;-64
2022/10/19 00:28:01;;;;;;;9.37;5.23;;;;;;;16.16;100.00;97253.19;5030461;28;102259;-64
2022/10/19 00:30:30;;;;;;;5.93;5.10;;;;;;;16.11;100.00;97253.16;5028329;28;103739;-64
2022/10/19 00:32:57;;;;;;;6.27;5.00;;;;;;;16.14;100.00;97252.66;5028776;28;102012;-64
2022/10/19 00:35:24;;;;;;;7.20;4.90;;;;;;;16.09;100.00;97249.94;5028741;28;105117;-64
2022/10/19 00:37:52;;;;;;;6.13;5.10;;;;;;;16.02;100.00;97254.75;5031416;28;105063;-64
2022/10/19 00:40:20;;;;;;;6.77;5.40;;;;;;;15.99;100.00;97252.59;5030273;28;102568;-64
2022/10/19 00:42:47;;;;;;;7.17;5.33;;;;;;;15.91;100.00;97256.59;5028093;28;105150;-64
2022/10/19 00:45:17;;;;;;;6.77;5.30;;;;;;;15.89;100.00;97263.28;5028742;27;102121;-64
2022/10/19 00:47:46;;;;;;;11.40;6.00;;;;;;;15.94;100.00;97268.66;5031939;28;105168;-64
2022/10/19 00:50:16;;;;;;;9.57;5.23;;;;;;;15.90;100.00;97263.03;5031607;28;105930;-64
2022/10/19 00:52:43;;;;;;;8.17;5.60;;;;;;;15.83;100.00;97256.28;5032242;28;101854;-64
2022/10/19 00:55:11;;;;;;;7.43;5.13;;;;;;;15.76;100.00;97255.72;5032030;28;105125;-64
2022/10/19 00:57:39;;;;;;;11.63;5.40;;;;;;;15.72;100.00;97260.00;5031362;28;105272;-64
2022/10/19 01:00:08;;;;;;;8.03;6.10;;;;;;;15.71;100.00;97269.09;5035478;28;101873;-64
2022/10/19 01:02:36;;;;;;;7.93;5.57;;;;;;;15.76;100.00;97250.34;5031305;28;105705;-64
2022/10/19 01:05:08;;;;;;;6.77;5.10;;;;;;;15.75;100.00;97254.91;5032149;28;102005;-64
2022/10/19 01:07:36;;;;;;;6.47;4.80;;;;;;;15.76;100.00;97255.72;5032024;28;105773;-64
2022/10/19 01:10:04;;;;;;;7.40;4.97;;;;;;;15.74;100.00;97253.28;5032864;28;102549;-64
2022/10/19 01:12:47;;;;;;;6.03;4.83;;;;;;;15.68;100.00;97245.47;5031802;28;101943;-64
2022/10/19 01:15:23;;;;;;;7.93;5.07;;;;;;;15.63;100.00;97248.13;5031787;28;105595;-64
2022/10/19 01:17:58;;;;;;;5.87;4.63;;;;;;;15.54;100.00;97241.69;5031266;28;103869;-64
2022/10/19 01:21:09;;;;;;;5.53;4.60;;;;;;;15.37;100.00;97246.41;5033279;28;101799;-64
2022/10/19 01:24:12;;;;;;;6.50;4.83;;;;;;;15.33;100.00;97237.28;5031545;27;102760;-64
2022/10/19 01:27:09;;;;;;;5.43;4.50;;;;;;;15.25;100.00;97240.38;5032910;28;101859;-64
2022/10/19 01:30:04;;;;;;;6.50;4.60;;;;;;;15.13;100.00;97231.75;4997974;28;105528;-63
2022/10/19 01:32:42;;;;;;;7.70;5.53;;;;;;;15.14;100.00;97236.84;5025407;27;102430;-64
2022/10/19 01:35:17;;;;;;;7.30;5.80;;;;;;;15.01;100.00;97249.88;5065659;27;102095;-64
2022/10/19 01:37:49;;;;;;;7.43;6.30;;;;;;;14.98;100.00;97237.81;5033095;28;102300;-64
2022/10/19 01:40:24;;;;;;;7.77;6.43;;;;;;;14.95;100.00;97235.66;5032639;28;103340;-64
2022/10/19 01:43:01;;;;;;;7.33;6.20;;;;;;;14.95;100.00;97238.34;5031380;28;102098;-64
2022/10/19 01:45:36;;;;;;;6.93;5.90;;;;;;;14.91;100.00;97242.59;5032799;28;102938;-64
2022/10/19 01:48:15;;;;;;;8.73;5.97;;;;;;;14.84;100.00;97236.66;5035243;28;103263;-64
2022/10/19 01:50:49;;;;;;;11.20;6.03;;;;;;;14.81;100.00;97239.00;5031625;28;105183;-64
2022/10/19 01:53:19;;;;;;;8.60;6.17;;;;;;;14.79;100.00;97241.16;5030697;28;104114;-64
2022/10/19 01:55:51;;;;;;;6.83;6.20;;;;;;;14.85;100.00;97240.13;5032365;28;101862;-64
2022/10/19 01:58:22;;;;;;;7.30;6.10;;;;;;;14.85;100.00;97237.44;5030619;28;105688;-64
2022/10/19 02:00:51;;;;;;;6.60;5.67;;;;;;;14.75;100.00;97232.00;5030443;28;105666;-64
2022/10/19 02:03:21;;;;;;;5.50;5.00;;;;;;;14.68;100.00;97221.53;5065272;27;101904;-64
2022/10/19 02:05:50;;;;;;;8.27;5.50;;;;;;;14.72;100.00;97230.63;5031243;28;105571;-64
2022/10/19 02:08:22;;;;;;;5.93;5.33;;;;;;;14.46;100.00;97228.84;5031508;28;103045;-64
2022/10/19 02:10:50;;;;;;;4.67;4.33;;;;;;;14.49;100.00;97219.50;5035910;28;101820;-64
2022/10/19 02:13:19;;;;;;;5.40;4.90;;;;;;;14.43;100.00;97213.28;5030166;28;103784;-64
2022/10/19 02:15:50;;;;;;;8.30;5.40;;;;;;;14.41;100.00;97215.41;5032231;28;101975;-64
2022/10/19 02:18:24;;;;;;;7.17;5.27;;;;;;;14.39;100.00;97225.53;5032777;28;102555;-64
2022/10/19 02:20:51;;;;;;;7.13;5.60;;;;;;;14.38;100.00;97223.13;5030276;28;105108;-64
2022/10/19 02:23:22;;;;;;;5.90;5.30;;;;;;;14.29;100.00;97227.31;5030906;28;101839;-64
2022/10/19 02:25:49;;;;;;;7.93;5.63;;;;;;;14.38;100.00;97229.28;5030810;28;105074;-64
2022/10/19 02:28:16;;;;;;;8.30;6.00;;;;;;;14.42;100.00;97226.91;5029978;28;105757;-64
2022/10/19 02:30:43;;;;;;;7.80;6.07;;;;;;;14.33;100.00;97226.56;5033926;28;102037;-64
2022/10/19 02:33:11;;;;;;;6.40;5.80;;;;;;;14.31;100.00;97226.00;5030018;28;103124;-64
2022/10/19 02:35:40;;;;;;;7.00;5.50;;;;;;;14.33;100.00;97223.09;5030587;28;101954;-64
2022/10/19 02:38:10;;;;;;;5.97;5.47;;;;;;;14.38;100.00;97215.09;5030671;28;105464;-64
2022/10/19 02:40:57;;;;;;;8.20;5.00;;;;;;;14.45;100.00;97215.69;5030028;28;106509;-64
2022/10/19 02:43:27;;;;;;;6.33;5.73;;;;;;;14.51;100.00;97214.69;5030421;28;102286;-64
2022/10/19 02:46:00;;;;;;;7.33;6.13;;;;;;;14.51;100.00;97209.31;5030466;28;105543;-64
2022/10/19 02:48:30;;;;;;;8.23;5.37;;;;;;;14.54;100.00;97208.81;5029650;28;105264;-64
2022/10/19 02:50:59;;;;;;;5.93;5.23;;;;;;;14.59;100.00;97214.19;5030481;28;101902;-64
2022/10/19 02:53:26;;;;;;;6.23;5.60;;;;;;;14.58;100.00;97212.59;5034752;28;102315;-64
2022/10/19 02:55:53;;;;;;;7.93;6.40;;;;;;;14.56;100.00;97212.84;5029994;28;102112;-64
2022/10/19 02:58:20;;;;;;;7.93;6.53;;;;;;;14.54;100.00;97214.16;5030245;28;105102;-64
2022/10/19 03:00:47;;;;;;;7.57;6.40;;;;;;;14.46;100.00;97215.44;5029647;28;105295;-64
2022/10/19 03:03:14;;;;;;;6.30;5.70;;;;;;;14.49;100.00;97216.81;5030395;28;101966;-64
2022/10/19 03:05:41;;;;;;;8.63;6.10;;;;;;;14.54;100.00;97206.13;5030170;28;105093;-64
2022/10/19 03:08:09;;;;;;;6.33;5.73;;;;;;;14.59;100.00;97216.88;5028714;27;105341;-64
2022/10/19 03:10:36;;;;;;;8.30;6.30;;;;;;;14.53;100.00;97213.38;5029709;28;101996;-64
2022/10/19 03:13:03;;;;;;;6.70;6.10;;;;;;;14.61;100.00;97206.75;5029941;28;104070;-64
2022/10/19 03:15:30;;;;;;;11.43;7.30;;;;;;;14.66;100.00;97212.13;5033894;28;102588;-64
2022/10/19 03:17:57;;;;;;;7.70;6.97;;;;;;;14.66;100.00;97210.25;5030030;28;104089;-64
2022/10/19 03:20:24;;;;;;;6.20;5.70;;;;;;;14.67;100.00;97209.19;5029341;28;105035;-64
2022/10/19 03:22:51;;;;;;;7.47;6.80;;;;;;;14.69;100.00;97206.25;5029739;28;101903;-64
2022/10/19 03:25:19;;;;;;;9.10;7.13;;;;;;;14.70;100.00;97213.22;5029680;28;104801;-64
2022/10/19 03:27:47;;;;;;;8.20;6.87;;;;;;;14.75;100.00;97210.59;5029230;28;105660;-64
2022/10/19 03:30:17;;;;;;;8.53;6.73;;;;;;;14.74;100.00;97214.31;5029866;28;101787;-64
2022/10/19 03:32:44;;;;;;;9.37;7.43;;;;;;;14.76;100.00;97213.00;5029844;28;104020;-64
2022/10/19 03:35:11;;;;;;;9.30;6.80;;;;;;;14.83;100.00;97210.91;5030744;28;103084;-64
2022/10/19 03:37:38;;;;;;;10.07;8.10;;;;;;;14.76;100.00;97215.69;5032834;28;101953;-64
2022/10/19 03:40:06;;;;;;;11.13;8.77;;;;;;;14.73;100.00;97218.06;5030473;28;103028;-64
2022/10/19 03:42:35;;;;;;;10.50;9.27;;;;;;;14.73;100.00;97218.91;5029534;28;101901;-64
2022/10/19 03:45:02;;;;;;;11.57;9.63;;;;;;;14.74;100.00;97212.47;5029646;28;104865;-64
2022/10/19 03:47:29;;;;;;;9.70;8.80;;;;;;;14.80;100.00;97213.31;5028811;28;105485;-64
2022/10/19 03:49:56;;;;;;;13.03;10.07;;;;;;;14.83;100.00;97210.91;5031155;28;101936;-64
2022/10/19 03:52:23;;;;;;;10.67;9.57;;;;;;;14.87;100.00;97214.69;5028352;28;104067;-64
2022/10/19 03:54:50;;;;;;;10.57;9.33;;;;;;;14.88;100.00;97210.16;5028462;28;105431;-64
2022/10/19 03:57:18;;;;;;;12.37;9.53;;;;;;;14.86;100.00;97218.44;5029542;28;101823;-64
2022/10/19 03:59:46;;;;;;;11.73;10.03;;;;;;;14.86;100.00;97217.63;5032181;28;105014;-64
2022/10/19 04:02:13;;;;;;;11.07;9.87;;;;;;;14.87;100.00;97209.34;5028314;28;101917;-64
2022/10/19 04:04:41;;;;;;;10.63;9.07;;;;;;;14.89;100.00;97201.84;5029034;28;105273;-64
2022/10/19 04:07:08;;;;;;;12.63;10.40;;;;;;;14.92;100.00;97195.16;5029997;28;103087;-64
2022/10/19 04:09:35;;;;;;;11.37;10.00;;;;;;;14.92;100.00;97203.19;5028115;28;102302;-64
2022/10/19 04:12:03;;;;;;;11.87;9.70;;;;;;;14.94;100.00;97203.78;5028212;28;103945;-64
2022/10/19 04:14:30;;;;;;;9.97;9.07;;;;;;;14.96;100.00;97205.13;5028355;28;103828;-64
2022/10/19 04:16:59;;;;;;;11.13;9.97;;;;;;;14.97;100.00;97204.06;5029141;28;102040;-64
2022/10/19 04:19:26;;;;;;;9.20;8.30;;;;;;;14.99;100.00;97196.56;5028026;28;105520;-64
2022/10/19 04:21:53;;;;;;;10.53;8.83;;;;;;;15.01;100.00;97207.84;5030885;28;102037;-64
2022/10/19 04:24:20;;;;;;;13.13;11.27;;;;;;;15.04;100.00;97199.28;5028962;28;104853;-64
2022/10/19 04:26:49;;;;;;;12.57;10.47;;;;;;;15.06;100.00;97196.34;5027364;28;105202;-64
2022/10/19 04:29:18;;;;;;;14.47;12.57;;;;;;;14.99;100.00;97196.56;5029501;28;101760;-64
2022/10/19 04:31:45;;;;;;;9.23;8.37;;;;;;;14.87;100.00;97197.84;5027753;28;106117;-64
2022/10/19 04:34:13;;;;;;;10.90;8.87;;;;;;;14.83;100.00;97196.72;5028261;28;103984;-64
2022/10/19 04:36:41;;;;;;;11.30;8.13;;;;;;;14.88;100.00;97196.78;5028704;28;102065;-64
2022/10/19 04:39:09;;;;;;;10.63;8.53;;;;;;;14.88;100.00;97194.09;5028634;28;105480;-64
2022/10/19 04:41:37;;;;;;;14.27;8.50;;;;;;;14.88;100.00;97202.13;5031460;28;105269;-64
2022/10/19 04:44:06;;;;;;;9.37;7.73;;;;;;;14.85;100.00;97202.63;5028582;28;103545;-64
2022/10/19 04:46:42;;;;;;;12.00;8.43;;;;;;;14.84;100.00;97198.34;5028065;28;106603;-63
2022/10/19 04:49:09;;;;;;;12.37;8.27;;;;;;;14.77;100.00;97197.75;5028989;28;102005;-63
2022/10/19 04:52:14;;;;;;;9.57;7.57;;;;;;;14.79;100.00;97195.63;5029040;28;104826;-63
2022/10/19 04:54:42;;;;;;;11.97;7.80;;;;;;;14.72;100.00;97195.84;5027774;28;105437;-63
2022/10/19 04:57:09;;;;;;;13.40;8.13;;;;;;;14.68;100.00;97188.59;5030267;28;101959;-63
2022/10/19 04:59:36;;;;;;;8.60;7.30;;;;;;;14.71;100.00;97182.72;5029027;28;105509;-63
2022/10/19 05:02:03;;;;;;;9.37;8.10;;;;;;;14.72;100.00;97187.00;5028237;28;105495;-63
2022/10/19 05:04:30;;;;;;;12.77;8.27;;;;;;;14.73;100.00;97180.59;5032210;28;101890;-63
2022/10/19 05:07:04;;;;;;;11.73;8.73;;;;;;;14.75;100.00;97178.44;5027972;28;105213;-63
2022/10/19 05:09:31;;;;;;;14.07;8.63;;;;;;;14.72;100.00;97176.31;5028794;28;101919;-63
2022/10/19 05:12:00;;;;;;;9.23;7.87;;;;;;;14.69;100.00;97174.13;5028587;28;104902;-63
2022/10/19 05:14:27;;;;;;;13.97;8.73;;;;;;;14.68;100.00;97167.97;5027932;28;105078;-63
2022/10/19 05:16:54;;;;;;;8.97;7.33;;;;;;;14.73;100.00;97176.06;5028478;28;101912;-63
2022/10/19 05:19:21;;;;;;;8.63;7.83;;;;;;;14.77;100.00;97171.78;5028660;28;104858;-63
2022/10/19 05:22:22;;;;;;;10.60;8.33;;;;;;;14.77;100.00;97173.66;5027738;28;105594;-63
2022/10/19 05:24:49;;;;;;;8.77;7.87;;;;;;;14.78;100.00;97172.59;5028599;28;101808;-63
2022/10/19 05:27:26;;;;;;;11.13;8.40;;;;;;;14.77;100.00;97173.66;5031276;28;104050;-63
2022/10/19 05:29:53;;;;;;;11.67;9.70;;;;;;;14.72;100.00;97168.28;5028654;28;102062;-63
2022/10/19 05:32:20;;;;;;;11.83;9.63;;;;;;;14.77;100.00;97176.34;5029623;27;105094;-63
2022/10/19 05:34:47;;;;;;;11.83;9.63;;;;;;;14.79;100.00;97172.34;5031135;28;105024;-63
2022/10/19 05:37:15;;;;;;;11.43;9.37;;;;;;;14.81;100.00;97172.06;5031791;28;101944;-63
2022/10/19 05:39:42;;;;;;;10.83;9.47;;;;;;;14.79;100.00;97168.84;5033085;27;104214;-63
2022/10/19 05:42:09;;;;;;;13.30;11.33;;;;;;;14.77;100.00;97165.63;5031043;28;105044;-63
2022/10/19 05:44:37;;;;;;;18.93;11.57;;;;;;;14.78;100.00;97159.22;5030508;28;101917;-63
2022/10/19 05:47:30;;;;;;;13.97;11.10;;;;;;;14.80;100.00;97162.41;5030743;28;105189;-63
2022/10/19 05:49:57;;;;;;;19.53;10.33;;;;;;;14.85;100.00;97154.44;5033091;28;105012;-63
2022/10/19 05:52:25;;;;;;;16.00;9.10;;;;;;;14.88;100.00;97162.75;5029916;28;104967;-63
2022/10/19 05:54:52;;;;;;;15.40;11.33;;;;;;;14.90;100.00;97159.81;5030262;28;104063;-63
2022/10/19 05:57:19;;;;;;;18.10;11.23;;;;;;;14.91;100.00;97159.56;5030178;28;101781;-63
2022/10/19 05:59:48;;;;;;;11.90;10.57;;;;;;;14.87;100.00;97160.34;5030089;28;102548;-63
2022/10/19 06:02:15;;;;;;;17.17;14.07;;;;;;;14.85;100.00;97162.47;5029349;28;105153;-63
2022/10/19 06:04:42;;;;;;;17.07;13.53;;;;;;;14.87;100.00;97163.03;5030162;28;101975;-63
2022/10/19 06:07:09;;;;;;;16.87;15.13;;;;;;;14.88;100.00;97172.66;5030087;28;105008;-63
2022/10/19 06:09:36;;;;;;;35.67;14.60;;;;;;;14.85;100.00;97167.81;5029153;28;105402;-63
2022/10/19 06:12:03;;;;;;;40.03;15.73;;;;;;;14.85;100.00;97163.28;5033336;28;102549;-63
2022/10/19 06:14:31;;;;;;;29.60;15.47;;;;;;;14.88;100.00;97170.00;5029572;28;105220;-63
2022/10/19 06:16:59;;;;;;;17.90;14.93;;;;;;;14.90;100.00;97178.56;5031298;28;101965;-63
2022/10/19 06:19:26;;;;;;;16.43;13.83;;;;;;;14.91;100.00;97182.84;5029771;28;106195;-63
2022/10/19 06:21:53;;;;;;;19.80;14.33;;;;;;;14.99;100.00;97174.34;5029112;28;105684;-63
2022/10/19 06:24:20;;;;;;;20.33;16.20;;;;;;;14.96;100.00;97173.00;5031087;28;101792;-63
2022/10/19 06:26:47;;;;;;;20.93;16.00;;;;;;;15.04;100.00;97174.38;5030788;28;102858;-63
2022/10/19 06:29:14;;;;;;;45.60;17.80;;;;;;;15.06;100.00;97177.59;5026959;28;105039;-63
2022/10/19 06:31:41;;;;;;;42.17;18.87;;;;;;;15.06;100.00;97177.59;5032849;28;101850;-64
2022/10/19 06:34:11;;;;;;;35.93;17.30;;;;;;;15.11;100.00;97181.13;5026378;28;105651;-64
2022/10/19 06:36:39;;;;;;;21.80;15.90;;;;;;;15.06;100.00;97180.28;5030217;28;101865;-64
2022/10/19 06:39:06;;;;;;;17.87;15.90;;;;;;;14.99;100.00;97185.06;5029716;28;103643;-64
2022/10/19 06:41:34;;;;;;;19.97;16.83;;;;;;;15.04;100.00;97193.13;5029267;28;105392;-64
2022/10/19 06:44:18;;;;;;;21.70;17.40;;;;;;;15.12;100.00;97190.78;5029733;27;101987;-65
2022/10/19 06:46:56;;;;;;;20.70;17.30;;;;;;;15.21;100.00;97193.75;5029741;28;103602;-65
2022/10/19 06:49:25;;;;;;;20.40;17.03;;;;;;;15.26;100.00;97185.75;5030669;28;102738;-65
2022/10/19 06:55:16;;;;;;;18.87;16.67;;;;;;;15.30;100.00;97192.19;5031941;28;104107;-66
2022/10/19 06:58:00;;;;;;;18.77;16.87;;;;;;;15.38;100.00;97199.78;5029700;28;101877;-63
2022/10/19 07:00:28;;;;;;;17.57;15.67;;;;;;;15.43;100.00;97202.47;5029612;28;103963;-63
2022/10/19 07:02:55;;;;;;;21.00;17.77;;;;;;;15.34;100.00;97199.50;5028918;28;104087;-63
2022/10/19 07:05:24;;;;;;;18.53;15.57;;;;;;;15.37;100.00;97206.22;5029592;28;101916;-64
2022/10/19 07:11:17;;;;;;;19.30;16.27;;;;;;;15.46;100.00;97210.81;5028826;28;104135;-64
2022/10/19 07:13:45;;;;;;;20.17;16.07;;;;;;;15.46;100.00;97213.50;5029463;28;102025;-64
2022/10/19 07:16:26;;;;;;;19.47;15.63;;;;;;;15.43;100.00;97221.25;5029105;28;105303;-63
2022/10/19 07:18:53;;;;;;;16.13;14.43;;;;;;;15.49;100.00;97214.84;5032216;28;106011;-64
2022/10/19 07:21:23;;;;;;;18.47;15.60;;;;;;;15.50;100.00;97214.59;5028988;28;105083;-64
2022/10/19 07:23:51;;;;;;;18.73;15.17;;;;;;;15.40;100.00;97221.75;5042275;27;105402;-64
2022/10/19 07:26:22;;;;;;;19.23;15.20;;;;;;;15.47;100.00;97219.66;5024935;28;101976;-64
2022/10/19 07:28:50;;;;;;;20.90;13.87;;;;;;;15.46;100.00;97210.00;5030825;28;102951;-63
2022/10/19 07:31:19;;;;;;;15.23;11.13;;;;;;;15.39;100.00;97206.75;5028518;28;105607;-65
2022/10/19 07:33:47;;;;;;;13.90;10.40;;;;;;;15.47;100.00;97208.94;5028898;28;101943;-64
2022/10/19 07:36:34;;;;;;;14.80;10.57;;;;;;;15.45;100.00;97205.69;5028721;28;104797;-64
2022/10/19 07:39:01;;;;;;;13.17;10.50;;;;;;;15.43;100.00;97205.16;5028386;28;106272;-64
2022/10/19 07:41:29;;;;;;;15.00;11.17;;;;;;;15.53;100.00;97207.91;5032338;28;101930;-64
2022/10/19 07:43:56;;;;;;;11.80;9.93;;;;;;;15.66;100.00;97215.44;5028211;28;105443;-64
2022/10/19 07:46:58;;;;;;;12.80;9.90;;;;;;;15.76;100.00;97208.25;5029663;28;101824;-63
2022/10/19 07:49:25;;;;;;;14.13;10.00;;;;;;;15.81;100.00;97202.09;5029767;28;104905;-64
2022/10/19 07:51:54;;;;;;;13.03;10.57;;;;;;;15.82;100.00;97211.75;5028099;28;105438;-64
2022/10/19 07:54:23;;;;;;;14.33;10.33;;;;;;;15.72;100.00;97207.16;5027922;27;103547;-64
2022/10/19 07:57:21;;;;;;;15.13;10.47;;;;;;;15.82;100.00;97207.22;5028868;28;105055;-64
2022/10/19 07:59:48;;;;;;;13.77;11.43;;;;;;;15.82;100.00;97207.22;5027878;28;105595;-64
2022/10/19 08:02:16;;;;;;;16.07;12.23;;;;;;;15.92;100.00;97214.47;5028360;28;101934;-64
2022/10/19 08:04:44;;;;;;;14.77;11.20;;;;;;;16.03;100.00;97208.84;5032655;28;104250;-64
2022/10/19 08:08:03;;;;;;;14.40;11.53;;;;;;;16.16;100.00;97204.88;5028578;28;101909;-64
2022/10/19 08:10:31;;;;;;;12.67;10.90;;;;;;;16.25;100.00;97203.28;5028314;28;104988;-64
2022/10/19 08:12:59;;;;;;;15.70;12.17;;;;;;;16.35;100.00;97200.63;5027774;28;103872;-63
2022/10/19 08:15:27;;;;;;;12.20;11.00;;;;;;;16.34;100.00;97199.81;5028235;28;101970;-63
2022/10/19 08:18:06;;;;;;;13.30;11.40;;;;;;;16.34;100.00;97204.34;5044965;27;105137;-63
2022/10/19 08:20:43;;;;;;;14.17;11.57;;;;;;;16.34;100.00;97196.31;5034831;27;103798;-63
2022/10/19 08:23:10;;;;;;;12.17;10.87;;;;;;;16.34;100.00;97198.97;5047158;27;103366;-63
2022/10/19 08:25:39;;;;;;;12.13;10.70;;;;;;;16.44;100.00;97199.84;5034401;27;105077;-63
2022/10/19 08:28:07;;;;;;;11.57;9.83;;;;;;;16.38;100.00;97200.88;5030699;28;107011;-63
2022/10/19 08:30:35;;;;;;;12.50;10.83;;;;;;;16.28;100.00;97200.88;5028774;28;104954;-63
2022/10/19 08:33:03;;;;;;;14.10;12.30;;;;;;;16.13;100.00;97203.53;5029062;27;103462;-64
2022/10/19 08:35:31;;;;;;;15.60;13.27;;;;;;;15.87;100.00;97199.16;5029464;28;101872;-64
2022/10/19 08:38:12;;;;;;;17.07;13.97;;;;;;;15.97;100.00;97193.81;5028121;28;105491;-65
2022/10/19 08:40:40;;;;;;;16.03;14.37;;;;;;;15.86;100.00;97199.44;5027763;28;105712;-64
2022/10/19 08:43:17;;;;;;;15.43;13.93;;;;;;;15.86;100.00;97197.56;5027917;28;101990;-64
2022/10/19 08:45:52;;;;;;;14.57;12.80;;;;;;;15.85;100.00;97195.13;5028038;28;105325;-64
2022/10/19 08:48:25;;;;;;;15.80;12.27;;;;;;;15.82;100.00;97203.72;5030859;28;105815;-64
2022/10/19 08:51:08;;;;;;;16.17;13.63;;;;;;;15.92;100.00;97206.44;5029300;28;102835;-64
2022/10/19 08:53:41;;;;;;;16.63;15.00;;;;;;;15.93;100.00;97205.34;5026905;28;105872;-64
2022/10/19 08:56:32;;;;;;;22.07;16.57;;;;;;;15.86;100.00;97212.84;5027972;28;101851;-64
2022/10/19 08:59:14;;;;;;;19.53;17.53;;;;;;;15.85;100.00;97206.66;5027809;28;105155;-64
2022/10/19 09:01:46;;;;;;;17.80;15.87;;;;;;;15.86;100.00;97207.50;5027453;28;105510;-64
2022/10/19 09:04:21;;;;;;;17.17;15.13;;;;;;;15.84;100.00;97204.25;5027730;28;102065;-64
2022/10/19 09:06:59;;;;;;;19.30;15.33;;;;;;;15.88;100.00;97208.03;5028418;27;104997;-64
2022/10/19 09:09:28;;;;;;;17.07;15.10;;;;;;;16.03;100.00;97202.72;5030788;28;105593;-64
2022/10/19 09:12:04;;;;;;;17.30;15.20;;;;;;;16.15;100.00;97197.91;5036112;28;101831;-63
2022/10/19 09:14:36;;;;;;;16.73;15.03;;;;;;;16.24;100.00;97199.00;5030756;28;105189;-63
2022/10/19 09:17:17;;;;;;;16.17;14.40;;;;;;;16.23;100.00;97197.34;5031142;28;101813;-64
2022/10/19 09:19:44;;;;;;;17.27;14.43;;;;;;;16.19;100.00;97193.63;5031194;28;105712;-64
2022/10/19 09:22:24;;;;;;;17.00;15.03;;;;;;;16.06;100.00;97186.88;5030616;28;105261;-64
2022/10/19 09:24:54;;;;;;;17.60;15.40;;;;;;;16.13;100.00;97198.16;5031252;28;101973;-63
2022/10/19 09:27:34;;;;;;;16.47;13.90;;;;;;;16.28;100.00;97192.00;5031185;28;105519;-64
2022/10/19 09:30:04;;;;;;;16.60;15.00;;;;;;;16.44;100.00;97193.66;5030636;28;105071;-63
2022/10/19 09:32:35;;;;;;;19.23;17.23;;;;;;;16.44;100.00;97189.13;5032522;28;101759;-64
2022/10/19 09:35:05;;;;;;;18.47;15.47;;;;;;;16.61;100.00;97200.38;5033752;28;102481;-64
2022/10/19 09:37:48;;;;;;;19.57;15.33;;;;;;;16.55;100.00;97195.28;5030783;28;101763;-64
2022/10/19 09:40:18;;;;;;;24.57;16.30;;;;;;;16.42;100.00;97195.81;5031109;28;104891;-63
2022/10/19 09:42:51;;;;;;;18.83;15.87;;;;;;;16.36;100.00;97189.59;5031310;28;103784;-63
2022/10/19 09:45:33;;;;;;;20.90;15.43;;;;;;;16.52;100.00;97196.63;5030842;28;101855;-63
2022/10/19 09:48:02;;;;;;;18.23;16.33;;;;;;;16.56;100.00;97203.06;5030751;28;103489;-64
2022/10/19 09:50:54;;;;;;;19.93;16.97;;;;;;;16.55;100.00;97198.78;5030364;28;105468;-64
2022/10/19 09:53:22;;;;;;;19.27;17.27;;;;;;;16.67;100.00;97196.63;5030551;28;101900;-64
2022/10/19 09:55:57;;;;;;;17.77;15.87;;;;;;;16.72;100.00;97191.25;5030425;28;105372;-64
2022/10/19 09:58:28;;;;;;;20.20;16.50;;;;;;;16.79;100.00;97191.00;5034868;28;103113;-64
2022/10/19 10:00:56;;;;;;;19.33;17.03;;;;;;;16.94;100.00;97199.84;5030525;28;105128;-63
2022/10/19 10:03:27;;;;;;;18.80;16.83;;;;;;;17.02;100.00;97191.25;5029849;28;105367;-63
2022/10/19 10:06:00;;;;;;;19.40;16.50;;;;;;;17.04;100.00;97193.63;5030251;28;102021;-63
2022/10/19 10:08:30;;;;;;;16.73;14.23;;;;;;;17.17;100.00;97201.16;5024984;28;105039;-64
2022/10/19 10:11:05;;;;;;;15.60;13.57;;;;;;;17.29;100.00;97199.78;5031044;27;103148;-63
2022/10/19 10:13:37;;;;;;;15.27;13.47;;;;;;;17.31;100.00;97199.50;5030138;28;102154;-64
2022/10/19 10:16:09;;;;;;;14.47;13.17;;;;;;;17.33;100.00;97198.16;5031434;27;102307;-63
2022/10/19 10:18:39;;;;;;;15.17;13.67;;;;;;;17.32;100.00;97195.72;5030808;27;102519;-64
2022/10/19 10:21:32;;;;;;;13.87;12.57;;;;;;;17.26;100.00;97192.25;5034942;28;101804;-63
2022/10/19 10:24:04;;;;;;;13.87;12.47;;;;;;;17.31;100.00;97194.94;5029601;28;105399;-64
2022/10/19 10:26:58;;;;;;;14.10;12.67;;;;;;;17.26;100.00;97191.44;5031446;27;101845;-64
2022/10/19 10:29:28;;;;;;;13.43;12.10;;;;;;;17.28;100.00;97189.31;5031098;28;102530;-64
2022/10/19 10:32:00;;;;;;;13.40;12.20;;;;;;;17.28;100.00;97192.78;5029123;28;106003;-63
2022/10/19 10:34:36;;;;;;;13.90;12.53;;;;;;;17.21;100.00;97188.75;5031036;28;102144;-64
2022/10/19 10:37:20;;;;;;;13.37;11.97;;;;;;;17.23;100.00;97189.31;5031275;27;102438;-63
2022/10/19 10:39:52;;;;;;;14.80;11.57;;;;;;;17.22;100.00;97193.88;5030852;27;102501;-64
2022/10/19 10:42:26;;;;;;;14.10;12.70;;;;;;;17.20;100.00;97187.16;5029933;28;101985;-64
2022/10/19 10:44:56;;;;;;;13.40;10.67;;;;;;;17.30;100.00;97179.06;5034408;28;102546;-63
2022/10/19 10:47:29;;;;;;;12.43;11.13;;;;;;;17.39;100.00;97170.19;5029871;28;101871;-64
2022/10/19 10:49:58;;;;;;;12.97;10.43;;;;;;;17.63;100.00;97165.81;5031452;28;102544;-64
2022/10/19 10:52:30;;;;;;;11.67;10.57;;;;;;;17.48;100.00;97162.34;5029082;28;105475;-63
2022/10/19 10:55:04;;;;;;;12.73;10.60;;;;;;;17.55;100.00;97163.69;5012798;28;101886;-64
2022/10/19 10:57:37;;;;;;;12.67;10.83;;;;;;;17.34;100.00;97158.63;5029819;28;105278;-63
2022/10/19 11:00:12;;;;;;;11.27;9.87;;;;;;;17.68;100.00;97160.41;5029237;28;105947;-63
2022/10/19 11:02:46;;;;;;;12.87;11.67;;;;;;;17.94;100.00;97150.31;5030571;28;102259;-64
2022/10/19 11:05:20;;;;;;;11.30;10.23;;;;;;;18.10;100.00;97149.16;5032665;28;105127;-63
2022/10/19 11:08:15;;;;;;;11.93;10.50;;;;;;;18.25;100.00;97143.66;5030862;28;101818;-64
2022/10/19 11:10:49;;;;;;;12.60;11.30;;;;;;;18.21;100.00;97143.38;5030934;28;102354;-64
2022/10/19 11:13:25;;;;;;;11.60;10.13;;;;;;;18.18;100.00;97143.97;5030503;28;102508;-63
2022/10/19 11:16:27;;;;;;;12.10;10.37;;;;;;;18.22;100.00;97147.72;5030254;28;101918;-64
2022/10/19 11:18:58;;;;;;;13.23;11.57;;;;;;;18.07;100.00;97133.53;5030778;27;102252;-64
2022/10/19 11:21:35;;;;;;;12.90;11.60;;;;;;;17.95;100.00;97136.59;5030249;27;102787;-64
2022/10/19 11:24:11;;;;;;;13.57;12.27;;;;;;;17.81;100.00;97132.06;5008911;28;102159;-63
2022/10/19 11:27:04;;;;;;;12.83;11.47;;;;;;;17.86;100.00;97129.34;5010515;28;102306;-63
2022/10/19 11:29:50;;;;;;;13.87;11.17;;;;;;;17.89;100.00;97123.44;5015207;28;102565;-63
2022/10/19 11:32:27;;;;;;;12.67;11.37;;;;;;;17.92;100.00;97115.59;5029295;28;103925;-63
2022/10/19 11:35:06;;;;;;;11.90;10.80;;;;;;;17.99;100.00;97109.91;5029726;28;103521;-63